createdAt,value
2018-07-03T00:01:15.553Z,99725.63
2018-07-03T00:03:44.798Z,99724.26
2018-07-03T00:06:13.849Z,99721.81
2018-07-03T00:08:42.974Z,99722.89
2018-07-03T00:11:12.105Z,99730.23
2018-07-03T00:13:41.369Z,99723.72
2018-07-03T00:16:14.485Z,99718.27
2018-07-03T00:18:43.729Z,99720.99
2018-07-03T00:21:12.908Z,99719.37
2018-07-03T00:23:42.073Z,99733.22
2018-07-03T00:26:11.437Z,99725.34
2018-07-03T00:28:40.662Z,99730.70
2018-07-03T00:31:09.897Z,99724.73
2018-07-03T00:33:39.119Z,99719.31
2018-07-03T00:36:08.155Z,99710.36
2018-07-03T00:38:37.200Z,99715.78
2018-07-03T00:41:06.377Z,99708.45
2018-07-03T00:43:35.699Z,99708.73
2018-07-03T00:46:04.836Z,99707.91
2018-07-03T00:48:33.986Z,99696.79
2018-07-03T00:51:03.403Z,99684.31
2018-07-03T00:53:32.485Z,99682.66
2018-07-03T00:56:01.794Z,99674.78
2018-07-03T00:58:30.974Z,99677.25
2018-07-03T01:01:00.167Z,99678.33
2018-07-03T01:03:29.481Z,99671.55
2018-07-03T01:05:58.665Z,99666.11
2018-07-03T01:08:27.890Z,99671.53
2018-07-03T01:10:57.074Z,99678.61
2018-07-03T01:13:26.266Z,99685.64
2018-07-03T01:15:55.561Z,99694.34
2018-07-03T01:18:24.771Z,99707.62
2018-07-03T01:20:53.985Z,99705.17
2018-07-03T01:23:23.162Z,99703.31
2018-07-03T01:25:52.357Z,99701.94
2018-07-03T01:28:21.628Z,99694.11
2018-07-03T01:30:50.899Z,99704.70
2018-07-03T01:33:19.876Z,99712.56
2018-07-03T01:35:48.950Z,99707.69
2018-07-03T01:38:18.165Z,99710.95
2018-07-03T01:40:47.341Z,99699.00
2018-07-03T01:43:16.659Z,99703.33
2018-07-03T01:45:45.762Z,99727.24
2018-07-03T01:48:14.933Z,99826.59
2018-07-03T01:50:44.133Z,99880.55
2018-07-03T01:53:13.333Z,99883.02
2018-07-03T01:55:42.538Z,99858.88
2018-07-03T01:58:12.097Z,99862.77
2018-07-03T02:00:41.102Z,99906.78
2018-07-03T02:03:09.860Z,99937.86
2018-07-03T02:05:38.709Z,99951.30
2018-07-03T02:08:07.496Z,99960.44
2018-07-03T02:10:36.249Z,99963.15
2018-07-03T02:13:04.982Z,99944.16
2018-07-03T02:15:33.724Z,99941.70
2018-07-03T02:18:02.437Z,99946.86
2018-07-03T02:20:31.134Z,99931.41
2018-07-03T02:22:59.921Z,99906.72
2018-07-03T02:25:28.682Z,99864.15
2018-07-03T02:27:57.405Z,99831.56
2018-07-03T02:30:26.125Z,99794.91
2018-07-03T02:32:54.853Z,99810.91
2018-07-03T02:35:23.606Z,99836.34
2018-07-03T02:37:52.318Z,99881.36
2018-07-03T02:40:21.069Z,99871.52
2018-07-03T02:42:49.779Z,99861.02
2018-07-03T02:45:18.550Z,99858.85
2018-07-03T02:47:47.332Z,99865.64
2018-07-03T02:50:16.074Z,99871.37
2018-07-03T02:52:44.799Z,99898.72
2018-07-03T02:55:13.527Z,99927.47
2018-07-03T02:57:42.310Z,99913.09
2018-07-03T03:00:11.088Z,99908.22
2018-07-03T03:02:39.800Z,99902.84
2018-07-03T03:05:08.562Z,99900.93
2018-07-03T03:07:37.416Z,99920.77
2018-07-03T03:10:06.199Z,99903.42
2018-07-03T03:12:35.105Z,99903.19
2018-07-03T03:15:03.941Z,99920.86
2018-07-03T03:17:32.793Z,99939.84
2018-07-03T03:20:01.546Z,99958.84
2018-07-03T03:22:30.397Z,99965.13
2018-07-03T03:24:59.226Z,99951.91
2018-07-03T03:27:28.035Z,99949.47
2018-07-03T03:29:56.852Z,99947.59
2018-07-03T03:32:25.727Z,99959.03
2018-07-03T03:34:54.526Z,99957.13
2018-07-03T03:37:23.261Z,99959.12
2018-07-03T03:39:51.977Z,99955.08
2018-07-03T03:42:20.782Z,99945.58
2018-07-03T03:44:52.534Z,99915.20
2018-07-03T03:47:21.260Z,99894.83
2018-07-03T03:49:50.060Z,99879.89
2018-07-03T03:52:18.857Z,99870.12
2018-07-03T03:54:47.560Z,99883.47
2018-07-03T03:57:16.265Z,99910.92
2018-07-03T03:59:44.957Z,99897.39
2018-07-03T04:02:13.754Z,99887.76
2018-07-03T04:04:42.478Z,99865.40
2018-07-03T04:07:11.261Z,99848.11
2018-07-03T04:09:40.032Z,99835.41
2018-07-03T04:12:08.910Z,99813.45
2018-07-03T04:14:37.703Z,99816.45
2018-07-03T04:17:06.618Z,99807.19
2018-07-03T04:19:35.402Z,99794.79
2018-07-03T04:22:04.110Z,99795.92
2018-07-03T04:24:32.824Z,99778.39
2018-07-03T04:27:01.522Z,99781.52
2018-07-03T04:29:30.267Z,99793.26
2018-07-03T04:31:59.021Z,99781.83
2018-07-03T04:34:27.885Z,99797.03
2018-07-03T04:36:56.642Z,99808.73
2018-07-03T04:39:25.437Z,99803.02
2018-07-03T04:41:54.150Z,99802.49
2018-07-03T04:44:22.857Z,99804.12
2018-07-03T04:46:51.617Z,99809.27
2018-07-03T04:49:20.312Z,99810.61
2018-07-03T04:51:49.026Z,99820.10
2018-07-03T04:54:17.749Z,99813.50
2018-07-03T04:56:46.471Z,99801.41
2018-07-03T04:59:15.213Z,99807.77
2018-07-03T05:01:43.930Z,99816.86
2018-07-03T05:04:12.662Z,99825.32
2018-07-03T05:06:41.383Z,99836.92
2018-07-03T05:09:11.318Z,99838.19
2018-07-03T05:11:40.074Z,99831.09
2018-07-03T05:14:09.406Z,99841.22
2018-07-03T05:16:38.506Z,99838.27
2018-07-03T05:19:07.381Z,99839.66
2018-07-03T05:21:36.081Z,99837.57
2018-07-03T05:24:04.791Z,99839.70
2018-07-03T05:26:33.495Z,99840.34
2018-07-03T05:29:02.193Z,99854.44
2018-07-03T05:31:31.011Z,99849.75
2018-07-03T05:33:59.809Z,99847.20
2018-07-03T05:36:28.540Z,99850.20
2018-07-03T05:38:57.362Z,99844.06
2018-07-03T05:41:26.090Z,99835.71
2018-07-03T05:43:55.134Z,99848.40
2018-07-03T05:46:23.825Z,99860.89
2018-07-03T05:48:52.677Z,99856.09
2018-07-03T05:51:21.409Z,99849.23
2018-07-03T05:53:50.136Z,99847.61
2018-07-03T05:56:18.973Z,99847.58
2018-07-03T05:58:47.957Z,99846.09
2018-07-03T06:01:16.690Z,99833.33
2018-07-03T06:03:45.419Z,99838.38
2018-07-03T06:06:14.145Z,99827.39
2018-07-03T06:08:42.867Z,99820.52
2018-07-03T06:11:11.570Z,99825.77
2018-07-03T06:13:40.290Z,99826.34
2018-07-03T06:16:09.033Z,99822.91
2018-07-03T06:18:37.740Z,99833.81
2018-07-03T06:21:06.532Z,99820.30
2018-07-03T06:23:35.285Z,99817.27
2018-07-03T06:26:04.141Z,99813.69
2018-07-03T06:28:32.894Z,99814.30
2018-07-03T06:31:01.599Z,99818.05
2018-07-03T06:33:30.329Z,99819.88
2018-07-03T06:35:59.050Z,99816.62
2018-07-03T06:38:27.774Z,99826.64
2018-07-03T06:40:56.513Z,99824.40
2018-07-03T06:43:25.202Z,99820.56
2018-07-03T06:45:53.915Z,99814.45
2018-07-03T06:48:22.630Z,99816.42
2018-07-03T06:50:51.345Z,99818.75
2018-07-03T06:53:20.058Z,99814.77
2018-07-03T06:55:49.072Z,99817.91
2018-07-03T06:58:17.839Z,99816.41
2018-07-03T07:00:47.422Z,99816.41
2018-07-03T07:03:16.136Z,99828.34
2018-07-03T07:05:44.907Z,99823.99
2018-07-03T07:08:13.673Z,99830.12
2018-07-03T07:10:42.381Z,99823.63
2018-07-03T07:13:11.147Z,99816.30
2018-07-03T07:15:39.841Z,99815.67
2018-07-03T07:18:08.564Z,99810.89
2018-07-03T07:20:37.300Z,99813.99
2018-07-03T07:23:06.339Z,99814.62
2018-07-03T07:25:35.069Z,99822.42
2018-07-03T07:28:03.786Z,99824.16
2018-07-03T07:30:32.494Z,99820.31
2018-07-03T07:33:01.184Z,99824.67
2018-07-03T07:35:29.907Z,99822.67
2018-07-03T07:37:58.614Z,99820.52
2018-07-03T07:40:27.331Z,99820.32
2018-07-03T07:42:56.197Z,99822.04
2018-07-03T07:45:24.892Z,99821.43
2018-07-03T07:47:53.590Z,99824.89
2018-07-03T07:50:22.474Z,99814.93
2018-07-03T07:52:51.161Z,99804.56
2018-07-03T07:55:19.853Z,99805.76
2018-07-03T07:57:48.576Z,99804.70
2018-07-03T08:00:17.322Z,99802.83
2018-07-03T08:02:46.011Z,99801.31
2018-07-03T08:05:14.840Z,99793.47
2018-07-03T08:07:43.521Z,99796.73
2018-07-03T08:10:12.201Z,99798.66
2018-07-03T08:12:40.968Z,99797.83
2018-07-03T08:15:09.746Z,99797.20
2018-07-03T08:17:38.477Z,99800.90
2018-07-03T08:20:07.190Z,99793.57
2018-07-03T08:22:35.900Z,99799.78
2018-07-03T08:25:04.697Z,99796.89
2018-07-03T08:27:33.397Z,99794.85
2018-07-03T08:30:02.130Z,99788.96
2018-07-03T08:32:30.910Z,99792.20
2018-07-03T08:34:59.628Z,99786.91
2018-07-03T08:37:28.507Z,99790.58
2018-07-03T08:39:57.206Z,99787.84
2018-07-03T08:42:25.950Z,99786.30
2018-07-03T08:44:54.664Z,99789.42
2018-07-03T08:47:23.353Z,99788.60
2018-07-03T08:49:52.053Z,99789.27
2018-07-03T08:52:20.738Z,99789.50
2018-07-03T08:54:49.497Z,99786.18
2018-07-03T08:57:18.178Z,99787.09
2018-07-03T08:59:46.858Z,99789.67
2018-07-03T09:02:15.598Z,99778.70
2018-07-03T09:04:44.701Z,99778.98
2018-07-03T09:07:13.457Z,99774.20
2018-07-03T09:09:42.200Z,99773.98
2018-07-03T09:12:10.920Z,99775.38
2018-07-03T09:14:39.611Z,99775.22
2018-07-03T09:17:13.535Z,99776.99
2018-07-03T09:19:42.639Z,99779.63
2018-07-03T09:22:11.346Z,99774.42
2018-07-03T09:24:40.245Z,99771.14
2018-07-03T09:27:09.150Z,99770.18
2018-07-03T09:29:37.846Z,99764.55
2018-07-03T09:32:06.777Z,99766.29
2018-07-03T09:34:36.347Z,99768.30
2018-07-03T09:37:05.295Z,99764.52
2018-07-03T09:39:34.038Z,99771.14
2018-07-03T09:42:02.731Z,99766.13
2018-07-03T09:44:31.434Z,99756.93
2018-07-03T09:47:00.195Z,99760.81
2018-07-03T09:49:28.931Z,99753.53
2018-07-03T09:51:57.755Z,99747.91
2018-07-03T09:54:26.479Z,99750.42
2018-07-03T09:56:55.182Z,99748.94
2018-07-03T09:59:24.070Z,99743.99
2018-07-03T10:01:52.829Z,99743.49
2018-07-03T10:04:21.589Z,99741.23
2018-07-03T10:06:51.219Z,99736.47
2018-07-03T10:09:19.927Z,99741.30
2018-07-03T10:11:48.681Z,99730.72
2018-07-03T10:14:17.384Z,99734.33
2018-07-03T10:16:46.130Z,99733.84
2018-07-03T10:19:15.232Z,99725.77
2018-07-03T10:21:43.941Z,99725.98
2018-07-03T10:24:12.653Z,99727.28
2018-07-03T10:26:41.438Z,99722.11
2018-07-03T10:29:10.161Z,99722.68
2018-07-03T10:31:38.973Z,99730.25
2018-07-03T10:34:07.666Z,99719.28
2018-07-03T10:36:36.372Z,99719.82
2018-07-03T10:39:08.440Z,99729.36
2018-07-03T10:41:37.505Z,99726.52
2018-07-03T10:44:06.447Z,99722.23
2018-07-03T10:46:35.194Z,99725.91
2018-07-03T10:49:03.902Z,99725.73
2018-07-03T10:51:32.662Z,99726.84
2018-07-03T10:54:01.414Z,99724.13
2018-07-03T10:56:30.123Z,99722.32
2018-07-03T10:58:58.820Z,99718.99
2018-07-03T11:01:27.634Z,99718.48
2018-07-03T11:03:56.371Z,99721.05
2018-07-03T11:06:25.094Z,99716.45
2018-07-03T11:08:53.793Z,99711.05
2018-07-03T11:11:22.506Z,99717.88
2018-07-03T11:13:51.298Z,99714.52
2018-07-03T11:16:19.960Z,99710.08
2018-07-03T11:18:48.702Z,99705.27
2018-07-03T11:21:17.607Z,99709.11
2018-07-03T11:23:46.359Z,99713.31
2018-07-03T11:26:15.140Z,99711.05
2018-07-03T11:28:43.951Z,99708.80
2018-07-03T11:31:12.699Z,99710.98
2018-07-03T11:33:41.474Z,99704.87
2018-07-03T11:36:10.158Z,99703.05
2018-07-03T11:38:38.874Z,99699.11
2018-07-03T11:41:07.623Z,99694.85
2018-07-03T11:43:36.518Z,99702.78
2018-07-03T11:46:05.221Z,99708.60
2018-07-03T11:48:33.950Z,99703.83
2018-07-03T11:51:02.682Z,99702.05
2018-07-03T11:53:31.499Z,99695.45
2018-07-03T11:56:00.194Z,99691.90
2018-07-03T11:58:28.984Z,99696.05
2018-07-03T12:00:57.846Z,99694.44
2018-07-03T12:03:26.590Z,99687.52
2018-07-03T12:05:55.363Z,99686.23
2018-07-03T12:08:24.133Z,99684.83
2018-07-03T12:10:53.067Z,99685.53
2018-07-03T12:13:21.862Z,99685.92
2018-07-03T12:15:50.581Z,99680.92
2018-07-03T12:18:24.522Z,99681.84
2018-07-03T12:20:53.357Z,99678.55
2018-07-03T12:23:22.124Z,99671.42
2018-07-03T12:25:50.849Z,99679.90
2018-07-03T12:28:19.647Z,99669.09
2018-07-03T12:30:48.379Z,99672.19
2018-07-03T12:33:17.102Z,99670.40
2018-07-03T12:35:45.840Z,99666.75
2018-07-03T12:38:14.591Z,99658.32
2018-07-03T12:40:43.319Z,99654.24
2018-07-03T12:43:12.080Z,99655.60
2018-07-03T12:45:40.848Z,99663.75
2018-07-03T12:48:09.557Z,99650.38
2018-07-03T12:50:38.285Z,99652.75
2018-07-03T12:53:07.441Z,99656.69
2018-07-03T12:55:36.142Z,99661.84
2018-07-03T12:58:04.892Z,99657.02
2018-07-03T13:00:33.614Z,99654.80
2018-07-03T13:03:02.330Z,99667.46
2018-07-03T13:05:31.147Z,99660.51
2018-07-03T13:07:59.909Z,99659.72
2018-07-03T13:10:28.749Z,99656.77
2018-07-03T13:12:57.490Z,99652.77
2018-07-03T13:15:26.368Z,99656.45
2018-07-03T13:17:55.099Z,99657.02
2018-07-03T13:20:23.810Z,99659.55
2018-07-03T13:22:52.633Z,99654.17
2018-07-03T13:25:21.520Z,99659.02
2018-07-03T13:27:50.253Z,99660.39
2018-07-03T13:30:18.971Z,99660.98
2018-07-03T13:32:47.698Z,99657.30
2018-07-03T13:35:16.436Z,99653.23
2018-07-03T13:37:45.145Z,99655.38
2018-07-03T13:40:13.850Z,99657.19
2018-07-03T13:42:42.831Z,99656.70
2018-07-03T13:45:11.602Z,99652.79
2018-07-03T13:47:40.409Z,99653.46
2018-07-03T13:50:09.118Z,99651.78
2018-07-03T13:52:37.825Z,99644.78
2018-07-03T13:55:06.862Z,99650.90
2018-07-03T13:57:35.588Z,99651.88
2018-07-03T14:00:04.336Z,99657.17
2018-07-03T14:02:33.074Z,99663.63
2018-07-03T14:05:01.935Z,99660.61
2018-07-03T14:07:36.923Z,99670.86
2018-07-03T14:10:11.000Z,99674.20
2018-07-03T14:12:45.001Z,99675.00
2018-07-03T14:15:18.483Z,99673.70
2018-07-03T14:17:50.248Z,99675.00
2018-07-03T14:20:19.759Z,99670.95
2018-07-03T14:22:48.874Z,99675.73
2018-07-03T14:25:17.897Z,99676.36
2018-07-03T14:27:51.156Z,99672.31
2018-07-03T14:30:23.019Z,99677.98
2018-07-03T14:32:52.321Z,99671.61
2018-07-03T14:35:21.575Z,99679.44
2018-07-03T14:37:50.738Z,99685.81
2018-07-03T14:40:19.954Z,99682.45
2018-07-03T14:42:49.147Z,99683.79
2018-07-03T14:45:18.305Z,99685.33
2018-07-03T14:47:47.503Z,99682.08
2018-07-03T14:50:16.811Z,99678.79
2018-07-03T14:52:46.097Z,99678.30
2018-07-03T14:55:15.596Z,99673.23
2018-07-03T14:57:44.818Z,99672.61
2018-07-03T15:00:14.100Z,99665.72
2018-07-03T15:02:43.498Z,99666.63
2018-07-03T15:05:12.870Z,99664.80
2018-07-03T15:07:41.634Z,99663.20
2018-07-03T15:10:10.354Z,99659.44
2018-07-03T15:12:39.075Z,99658.73
2018-07-03T15:15:07.836Z,99655.38
2018-07-03T15:17:36.606Z,99660.19
2018-07-03T15:20:05.360Z,99657.20
2018-07-03T15:22:34.169Z,99659.08
2018-07-03T15:25:04.105Z,99659.73
2018-07-03T15:27:37.089Z,99663.98
2018-07-03T15:30:06.450Z,99660.61
2018-07-03T15:32:35.762Z,99660.91
2018-07-03T15:35:04.775Z,99664.41
2018-07-03T15:37:34.063Z,99663.61
2018-07-03T15:40:03.397Z,99665.74
2018-07-03T15:42:32.810Z,99663.77
2018-07-03T15:45:08.640Z,99674.05
2018-07-03T15:47:37.628Z,99664.09
2018-07-03T15:50:08.305Z,99669.48
2018-07-03T15:52:37.508Z,99663.54
2018-07-03T15:55:06.933Z,99665.19
2018-07-03T15:57:36.345Z,99674.58
2018-07-03T16:00:06.437Z,99672.83
2018-07-03T16:02:35.822Z,99663.91
2018-07-03T16:05:17.942Z,99669.17
2018-07-03T16:08:06.782Z,99666.06
2018-07-03T16:10:35.636Z,99662.45
2018-07-03T16:13:04.403Z,99658.45
2018-07-03T16:15:33.210Z,99662.23
2018-07-03T16:18:01.910Z,99659.72
2018-07-03T16:20:35.752Z,99658.02
2018-07-03T16:23:04.606Z,99659.09
2018-07-03T16:25:33.450Z,99659.20
2018-07-03T16:28:02.153Z,99657.13
2018-07-03T16:30:30.875Z,99654.33
2018-07-03T16:32:59.606Z,99651.20
2018-07-03T16:35:28.335Z,99648.50
2018-07-03T16:37:57.082Z,99645.98
2018-07-03T16:40:25.798Z,99644.34
2018-07-03T16:42:54.500Z,99638.84
2018-07-03T16:45:23.238Z,99647.04
2018-07-03T16:47:51.994Z,99638.55
2018-07-03T16:50:20.733Z,99650.91
2018-07-03T16:52:49.643Z,99649.00
2018-07-03T16:55:18.345Z,99649.50
2018-07-03T16:57:47.111Z,99656.45
2018-07-03T17:00:22.255Z,99653.84
2018-07-03T17:02:51.020Z,99657.32
2018-07-03T17:05:19.777Z,99656.92
2018-07-03T17:07:48.576Z,99650.62
2018-07-03T17:10:17.305Z,99654.31
2018-07-03T17:12:46.427Z,99659.32
2018-07-03T17:15:15.393Z,99662.09
2018-07-03T17:17:44.117Z,99669.80
2018-07-03T17:20:13.042Z,99672.50
2018-07-03T17:22:41.769Z,99672.01
2018-07-03T17:25:10.521Z,99674.72
2018-07-03T17:27:39.275Z,99676.38
2018-07-03T17:30:08.016Z,99684.98
2018-07-03T17:32:36.768Z,99682.85
2018-07-03T17:35:05.635Z,99682.98
2018-07-03T17:37:34.357Z,99684.81
2018-07-03T17:40:14.231Z,99686.26
2018-07-03T17:42:53.987Z,99686.37
2018-07-03T17:45:34.582Z,99692.16
2018-07-03T17:48:05.678Z,99687.37
2018-07-03T17:50:34.866Z,99695.41
2018-07-03T17:53:03.579Z,99695.95
2018-07-03T17:55:33.020Z,99695.99
2018-07-03T17:58:01.839Z,99701.73
2018-07-03T18:00:31.221Z,99699.78
2018-07-03T18:03:00.166Z,99699.62
2018-07-03T18:05:29.846Z,99697.94
2018-07-03T18:07:58.929Z,99699.31
2018-07-03T18:10:27.743Z,99696.08
2018-07-03T18:12:56.449Z,99693.66
2018-07-03T18:15:25.270Z,99695.81
2018-07-03T18:17:53.953Z,99705.65
2018-07-03T18:20:22.641Z,99697.00
2018-07-03T18:22:51.354Z,99705.69
2018-07-03T18:25:20.055Z,99712.47
2018-07-03T18:27:48.801Z,99709.84
2018-07-03T18:30:17.590Z,99708.38
2018-07-03T18:32:46.395Z,99720.05
2018-07-03T18:35:15.102Z,99722.28
2018-07-03T18:37:43.845Z,99725.58
2018-07-03T18:40:12.619Z,99731.20
2018-07-03T18:42:41.323Z,99743.30
2018-07-03T18:45:10.090Z,99741.78
2018-07-03T18:47:38.914Z,99754.27
2018-07-03T18:50:07.661Z,99751.02
2018-07-03T18:52:36.411Z,99755.56
2018-07-03T18:55:05.255Z,99756.91
2018-07-03T18:57:34.057Z,99754.59
2018-07-03T19:00:02.759Z,99754.43
2018-07-03T19:02:31.481Z,99751.19
2018-07-03T19:05:04.289Z,99754.28
2018-07-03T19:07:33.202Z,99750.14
2018-07-03T19:10:02.051Z,99751.85
2018-07-03T19:12:30.757Z,99754.76
2018-07-03T19:14:59.481Z,99755.48
2018-07-03T19:17:28.284Z,99754.55
2018-07-03T19:19:56.985Z,99759.88
2018-07-03T19:22:25.812Z,99760.49
2018-07-03T19:24:54.594Z,99760.49
2018-07-03T19:27:23.393Z,99765.41
2018-07-03T19:29:52.191Z,99761.36
2018-07-03T19:32:21.021Z,99757.81
2018-07-03T19:34:49.857Z,99760.58
2018-07-03T19:37:18.684Z,99761.20
2018-07-03T19:39:47.436Z,99761.31
2018-07-03T19:42:16.262Z,99772.13
2018-07-03T19:44:45.068Z,99770.88
2018-07-03T19:47:13.814Z,99770.09
2018-07-03T19:49:42.729Z,99772.63
2018-07-03T19:52:11.688Z,99768.99
2018-07-03T19:54:40.404Z,99771.30
2018-07-03T19:57:09.181Z,99774.67
2018-07-03T19:59:37.970Z,99774.17
2018-07-03T20:02:06.790Z,99773.05
2018-07-03T20:04:35.578Z,99780.14
2018-07-03T20:07:04.358Z,99777.16
2018-07-03T20:09:33.097Z,99774.67
2018-07-03T20:12:02.067Z,99777.73
2018-07-03T20:14:30.906Z,99771.28
2018-07-03T20:17:00.556Z,99778.42
2018-07-03T20:19:29.404Z,99781.71
2018-07-03T20:21:58.162Z,99770.59
2018-07-03T20:24:26.911Z,99778.84
2018-07-03T20:26:55.662Z,99774.19
2018-07-03T20:29:24.386Z,99773.40
2018-07-03T20:31:53.113Z,99780.07
2018-07-03T20:34:21.938Z,99780.86
2018-07-03T20:36:50.721Z,99787.25
2018-07-03T20:39:19.436Z,99786.96
2018-07-03T20:41:48.165Z,99784.27
2018-07-03T20:44:16.988Z,99785.39
2018-07-03T20:46:45.732Z,99788.44
2018-07-03T20:49:14.597Z,99790.45
2018-07-03T20:51:43.333Z,99794.60
2018-07-03T20:54:12.213Z,99788.95
2018-07-03T20:56:40.977Z,99792.33
2018-07-03T20:59:09.729Z,99789.60
2018-07-03T21:01:38.439Z,99785.30
2018-07-03T21:04:07.225Z,99787.79
2018-07-03T21:06:35.997Z,99784.77
2018-07-03T21:09:06.182Z,99787.48
2018-07-03T21:11:35.014Z,99786.41
2018-07-03T21:14:03.821Z,99785.06
2018-07-03T21:16:32.633Z,99783.38
2018-07-03T21:19:01.337Z,99781.17
2018-07-03T21:21:30.034Z,99784.41
2018-07-03T21:23:58.801Z,99783.89
2018-07-03T21:26:27.502Z,99786.31
2018-07-03T21:28:56.242Z,99783.23
2018-07-03T21:31:24.949Z,99787.89
2018-07-03T21:33:53.834Z,99789.06
2018-07-03T21:36:22.706Z,99785.52
2018-07-03T21:38:51.480Z,99789.06
2018-07-03T21:41:20.198Z,99782.69
2018-07-03T21:43:48.890Z,99787.02
2018-07-03T21:46:17.642Z,99790.02
2018-07-03T21:48:46.444Z,99796.88
2018-07-03T21:51:15.144Z,99788.70
2018-07-03T21:53:43.878Z,99784.30
2018-07-03T21:56:12.573Z,99788.90
2018-07-03T21:58:41.269Z,99788.59
2018-07-03T22:01:09.957Z,99780.24
2018-07-03T22:03:38.722Z,99792.55
2018-07-03T22:06:07.498Z,99786.38
2018-07-03T22:08:36.216Z,99781.27
2018-07-03T22:11:04.953Z,99775.57
2018-07-03T22:13:33.653Z,99780.53
2018-07-03T22:16:02.383Z,99778.41
2018-07-03T22:18:31.152Z,99774.39
2018-07-03T22:20:59.890Z,99776.88
2018-07-03T22:23:28.615Z,99778.37
2018-07-03T22:25:57.366Z,99783.06
2018-07-03T22:28:26.076Z,99780.67
2018-07-03T22:30:54.859Z,99779.06
2018-07-03T22:33:23.590Z,99774.41
2018-07-03T22:35:52.348Z,99769.77
2018-07-03T22:38:21.049Z,99770.02
2018-07-03T22:40:49.752Z,99774.88
2018-07-03T22:43:18.513Z,99771.89
2018-07-03T22:45:47.211Z,99766.19
2018-07-03T22:48:16.038Z,99764.27
2018-07-03T22:50:44.743Z,99764.02
2018-07-03T22:53:13.449Z,99761.33
2018-07-03T22:55:44.774Z,99759.37
2018-07-03T22:58:19.943Z,99760.73
2018-07-03T23:00:54.360Z,99761.03
2018-07-03T23:03:27.425Z,99756.34
2018-07-03T23:06:00.472Z,99756.34
2018-07-03T23:08:31.663Z,99754.97
2018-07-03T23:11:00.483Z,99763.23
2018-07-03T23:13:29.250Z,99758.68
2018-07-03T23:15:57.983Z,99751.86
2018-07-03T23:18:26.739Z,99753.56
2018-07-03T23:20:55.584Z,99750.55
2018-07-03T23:23:24.357Z,99750.55
2018-07-03T23:25:53.052Z,99746.45
2018-07-03T23:28:21.815Z,99748.38
2018-07-03T23:30:50.628Z,99750.08
2018-07-03T23:33:19.477Z,99746.32
2018-07-03T23:35:48.190Z,99747.17
2018-07-03T23:38:16.918Z,99745.55
2018-07-03T23:40:46.350Z,99751.05
2018-07-03T23:43:15.042Z,99745.08
2018-07-03T23:46:04.754Z,99748.91
2018-07-03T23:48:44.541Z,99746.18
2018-07-03T23:51:24.290Z,99753.03
2018-07-03T23:54:04.047Z,99750.30
2018-07-03T23:56:43.722Z,99750.89
2018-07-03T23:59:23.487Z,99747.13
